sensor_id;sensor_type;location;lat;lon;timestamp;P1;durP1;ratioP1;P2;durP2;ratioP2
12900;SDS011;6518;50.930;5.344;2023-04-07T00:00:43;30.93;;;19.27;;
12900;SDS011;6518;50.930;5.344;2023-04-07T00:03:11;28.87;;;18.20;;
12900;SDS011;6518;50.930;5.344;2023-04-07T00:05:38;29.93;;;18.70;;
12900;SDS011;6518;50.930;5.344;2023-04-07T00:08:05;28.73;;;18.23;;
12900;SDS011;6518;50.930;5.344;2023-04-07T00:10:31;30.70;;;18.10;;
12900;SDS011;6518;50.930;5.344;2023-04-07T00:12:58;31.33;;;17.63;;
12900;SDS011;6518;50.930;5.344;2023-04-07T00:15:26;28.13;;;17.53;;
12900;SDS011;6518;50.930;5.344;2023-04-07T00:17:53;22.73;;;16.77;;
12900;SDS011;6518;50.930;5.344;2023-04-07T00:20:21;25.57;;;15.87;;
12900;SDS011;6518;50.930;5.344;2023-04-07T00:22:48;29.13;;;15.80;;
12900;SDS011;6518;50.930;5.344;2023-04-07T00:25:15;29.73;;;16.93;;
12900;SDS011;6518;50.930;5.344;2023-04-07T00:27:42;27.47;;;16.13;;
12900;SDS011;6518;50.930;5.344;2023-04-07T00:30:09;26.90;;;16.00;;
12900;SDS011;6518;50.930;5.344;2023-04-07T00:32:36;26.20;;;15.87;;
12900;SDS011;6518;50.930;5.344;2023-04-07T00:35:02;21.00;;;14.97;;
12900;SDS011;6518;50.930;5.344;2023-04-07T00:37:31;27.03;;;15.73;;
12900;SDS011;6518;50.930;5.344;2023-04-07T00:39:58;23.70;;;15.80;;
12900;SDS011;6518;50.930;5.344;2023-04-07T00:42:25;26.03;;;15.87;;
12900;SDS011;6518;50.930;5.344;2023-04-07T00:44:52;25.13;;;15.47;;
12900;SDS011;6518;50.930;5.344;2023-04-07T00:47:18;24.20;;;14.77;;
12900;SDS011;6518;50.930;5.344;2023-04-07T00:49:45;25.67;;;15.60;;
12900;SDS011;6518;50.930;5.344;2023-04-07T00:52:12;24.40;;;15.73;;
12900;SDS011;6518;50.930;5.344;2023-04-07T00:54:41;24.20;;;15.27;;
12900;SDS011;6518;50.930;5.344;2023-04-07T00:57:10;21.47;;;15.03;;
12900;SDS011;6518;50.930;5.344;2023-04-07T00:59:37;22.40;;;14.73;;
12900;SDS011;6518;50.930;5.344;2023-04-07T01:02:06;22.00;;;15.53;;
12900;SDS011;6518;50.930;5.344;2023-04-07T01:04:38;23.23;;;14.97;;
12900;SDS011;6518;50.930;5.344;2023-04-07T01:07:10;23.53;;;15.53;;
12900;SDS011;6518;50.930;5.344;2023-04-07T01:09:44;25.30;;;15.10;;
12900;SDS011;6518;50.930;5.344;2023-04-07T01:12:14;24.37;;;14.70;;
12900;SDS011;6518;50.930;5.344;2023-04-07T01:14:49;26.50;;;16.27;;
12900;SDS011;6518;50.930;5.344;2023-04-07T01:17:18;22.17;;;15.63;;
12900;SDS011;6518;50.930;5.344;2023-04-07T01:19:49;24.23;;;15.43;;
12900;SDS011;6518;50.930;5.344;2023-04-07T01:22:22;28.50;;;16.23;;
12900;SDS011;6518;50.930;5.344;2023-04-07T01:25:01;30.03;;;15.17;;
12900;SDS011;6518;50.930;5.344;2023-04-07T01:27:42;28.83;;;16.00;;
12900;SDS011;6518;50.930;5.344;2023-04-07T01:30:21;25.63;;;16.00;;
12900;SDS011;6518;50.930;5.344;2023-04-07T01:32:50;26.67;;;15.67;;
12900;SDS011;6518;50.930;5.344;2023-04-07T01:35:19;27.00;;;16.73;;
12900;SDS011;6518;50.930;5.344;2023-04-07T01:37:47;32.67;;;16.87;;
12900;SDS011;6518;50.930;5.344;2023-04-07T01:40:16;28.47;;;16.60;;
12900;SDS011;6518;50.930;5.344;2023-04-07T01:42:44;30.10;;;17.03;;
12900;SDS011;6518;50.930;5.344;2023-04-07T01:45:12;32.30;;;17.63;;
12900;SDS011;6518;50.930;5.344;2023-04-07T01:47:42;28.10;;;18.43;;
12900;SDS011;6518;50.930;5.344;2023-04-07T01:50:10;33.60;;;19.07;;
12900;SDS011;6518;50.930;5.344;2023-04-07T01:52:38;32.67;;;19.13;;
12900;SDS011;6518;50.930;5.344;2023-04-07T01:55:05;36.07;;;19.17;;
12900;SDS011;6518;50.930;5.344;2023-04-07T01:57:33;31.97;;;18.33;;
12900;SDS011;6518;50.930;5.344;2023-04-07T02:00:00;31.20;;;17.53;;
12900;SDS011;6518;50.930;5.344;2023-04-07T02:02:28;30.93;;;18.33;;
12900;SDS011;6518;50.930;5.344;2023-04-07T02:04:57;27.97;;;17.47;;
12900;SDS011;6518;50.930;5.344;2023-04-07T02:07:30;28.40;;;17.33;;
12900;SDS011;6518;50.930;5.344;2023-04-07T02:10:02;29.17;;;18.43;;
12900;SDS011;6518;50.930;5.344;2023-04-07T02:12:33;32.20;;;17.20;;
12900;SDS011;6518;50.930;5.344;2023-04-07T02:15:02;31.97;;;18.17;;
12900;SDS011;6518;50.930;5.344;2023-04-07T02:17:30;30.63;;;16.90;;
12900;SDS011;6518;50.930;5.344;2023-04-07T02:20:01;29.33;;;17.13;;
12900;SDS011;6518;50.930;5.344;2023-04-07T02:22:29;29.40;;;17.03;;
12900;SDS011;6518;50.930;5.344;2023-04-07T02:24:58;29.40;;;17.43;;
12900;SDS011;6518;50.930;5.344;2023-04-07T02:27:24;26.83;;;17.33;;
12900;SDS011;6518;50.930;5.344;2023-04-07T02:29:51;27.80;;;16.40;;
12900;SDS011;6518;50.930;5.344;2023-04-07T02:32:18;28.70;;;17.43;;
12900;SDS011;6518;50.930;5.344;2023-04-07T02:34:45;30.70;;;17.10;;
12900;SDS011;6518;50.930;5.344;2023-04-07T02:37:13;30.90;;;17.33;;
12900;SDS011;6518;50.930;5.344;2023-04-07T02:39:40;24.87;;;16.40;;
12900;SDS011;6518;50.930;5.344;2023-04-07T02:42:07;31.73;;;17.87;;
12900;SDS011;6518;50.930;5.344;2023-04-07T02:44:33;35.20;;;18.47;;
12900;SDS011;6518;50.930;5.344;2023-04-07T02:47:00;32.17;;;17.47;;
12900;SDS011;6518;50.930;5.344;2023-04-07T02:49:27;34.90;;;20.13;;
12900;SDS011;6518;50.930;5.344;2023-04-07T02:51:54;36.13;;;19.33;;
12900;SDS011;6518;50.930;5.344;2023-04-07T02:54:22;34.33;;;19.97;;
12900;SDS011;6518;50.930;5.344;2023-04-07T02:56:48;36.57;;;22.50;;
12900;SDS011;6518;50.930;5.344;2023-04-07T02:59:15;41.60;;;22.30;;
12900;SDS011;6518;50.930;5.344;2023-04-07T03:01:42;38.13;;;23.13;;
12900;SDS011;6518;50.930;5.344;2023-04-07T03:04:09;39.10;;;23.00;;
12900;SDS011;6518;50.930;5.344;2023-04-07T03:06:36;37.40;;;23.57;;
12900;SDS011;6518;50.930;5.344;2023-04-07T03:09:03;37.10;;;23.23;;
12900;SDS011;6518;50.930;5.344;2023-04-07T03:11:31;39.27;;;23.07;;
12900;SDS011;6518;50.930;5.344;2023-04-07T03:13:57;38.03;;;22.63;;
12900;SDS011;6518;50.930;5.344;2023-04-07T03:16:24;41.20;;;23.30;;
12900;SDS011;6518;50.930;5.344;2023-04-07T03:18:51;40.07;;;23.07;;
12900;SDS011;6518;50.930;5.344;2023-04-07T03:21:18;39.23;;;23.33;;
12900;SDS011;6518;50.930;5.344;2023-04-07T03:23:44;39.73;;;24.20;;
12900;SDS011;6518;50.930;5.344;2023-04-07T03:26:11;38.93;;;24.27;;
12900;SDS011;6518;50.930;5.344;2023-04-07T03:28:39;39.57;;;23.67;;
12900;SDS011;6518;50.930;5.344;2023-04-07T03:31:06;43.37;;;23.87;;
12900;SDS011;6518;50.930;5.344;2023-04-07T03:33:33;40.87;;;23.13;;
12900;SDS011;6518;50.930;5.344;2023-04-07T03:36:00;32.83;;;18.83;;
12900;SDS011;6518;50.930;5.344;2023-04-07T03:38:27;41.77;;;23.90;;
12900;SDS011;6518;50.930;5.344;2023-04-07T03:40:53;43.00;;;23.90;;
12900;SDS011;6518;50.930;5.344;2023-04-07T03:43:20;38.43;;;23.87;;
12900;SDS011;6518;50.930;5.344;2023-04-07T03:45:48;41.47;;;24.73;;
12900;SDS011;6518;50.930;5.344;2023-04-07T03:48:15;37.83;;;24.20;;
12900;SDS011;6518;50.930;5.344;2023-04-07T03:50:42;41.00;;;23.40;;
12900;SDS011;6518;50.930;5.344;2023-04-07T03:53:10;39.40;;;24.10;;
12900;SDS011;6518;50.930;5.344;2023-04-07T03:55:38;45.20;;;24.73;;
12900;SDS011;6518;50.930;5.344;2023-04-07T03:58:05;40.03;;;24.87;;
12900;SDS011;6518;50.930;5.344;2023-04-07T04:00:32;35.40;;;22.77;;
12900;SDS011;6518;50.930;5.344;2023-04-07T04:03:01;44.17;;;25.30;;
12900;SDS011;6518;50.930;5.344;2023-04-07T04:05:28;41.37;;;24.57;;
12900;SDS011;6518;50.930;5.344;2023-04-07T04:07:55;48.53;;;26.50;;
12900;SDS011;6518;50.930;5.344;2023-04-07T04:10:22;42.23;;;25.70;;
12900;SDS011;6518;50.930;5.344;2023-04-07T04:12:49;38.13;;;25.07;;
12900;SDS011;6518;50.930;5.344;2023-04-07T04:15:16;38.77;;;26.27;;
12900;SDS011;6518;50.930;5.344;2023-04-07T04:17:43;40.50;;;25.20;;
12900;SDS011;6518;50.930;5.344;2023-04-07T04:20:11;42.13;;;26.13;;
12900;SDS011;6518;50.930;5.344;2023-04-07T04:22:38;41.53;;;26.10;;
12900;SDS011;6518;50.930;5.344;2023-04-07T04:25:05;43.20;;;24.90;;
12900;SDS011;6518;50.930;5.344;2023-04-07T04:27:32;36.27;;;24.13;;
12900;SDS011;6518;50.930;5.344;2023-04-07T04:29:59;43.87;;;25.07;;
12900;SDS011;6518;50.930;5.344;2023-04-07T04:32:26;47.73;;;25.80;;
12900;SDS011;6518;50.930;5.344;2023-04-07T04:34:53;38.67;;;25.93;;
12900;SDS011;6518;50.930;5.344;2023-04-07T04:37:21;46.20;;;25.50;;
12900;SDS011;6518;50.930;5.344;2023-04-07T04:39:48;43.83;;;25.97;;
12900;SDS011;6518;50.930;5.344;2023-04-07T04:42:14;44.77;;;26.10;;
12900;SDS011;6518;50.930;5.344;2023-04-07T04:44:41;46.37;;;25.83;;
12900;SDS011;6518;50.930;5.344;2023-04-07T04:47:08;46.50;;;26.40;;
12900;SDS011;6518;50.930;5.344;2023-04-07T04:49:35;44.07;;;25.00;;
12900;SDS011;6518;50.930;5.344;2023-04-07T04:52:02;42.20;;;25.77;;
12900;SDS011;6518;50.930;5.344;2023-04-07T04:54:30;44.57;;;24.83;;
12900;SDS011;6518;50.930;5.344;2023-04-07T04:56:57;42.10;;;24.70;;
12900;SDS011;6518;50.930;5.344;2023-04-07T04:59:24;44.63;;;26.50;;
12900;SDS011;6518;50.930;5.344;2023-04-07T05:01:51;46.93;;;26.73;;
12900;SDS011;6518;50.930;5.344;2023-04-07T05:04:17;44.60;;;26.50;;
12900;SDS011;6518;50.930;5.344;2023-04-07T05:06:44;43.77;;;27.30;;
12900;SDS011;6518;50.930;5.344;2023-04-07T05:09:11;40.70;;;25.83;;
12900;SDS011;6518;50.930;5.344;2023-04-07T05:11:40;45.77;;;27.37;;
12900;SDS011;6518;50.930;5.344;2023-04-07T05:14:07;45.67;;;26.93;;
12900;SDS011;6518;50.930;5.344;2023-04-07T05:16:34;38.37;;;24.87;;
12900;SDS011;6518;50.930;5.344;2023-04-07T05:19:01;46.90;;;25.80;;
12900;SDS011;6518;50.930;5.344;2023-04-07T05:21:27;43.00;;;25.87;;
12900;SDS011;6518;50.930;5.344;2023-04-07T05:23:54;44.83;;;26.43;;
12900;SDS011;6518;50.930;5.344;2023-04-07T05:26:21;47.50;;;26.20;;
12900;SDS011;6518;50.930;5.344;2023-04-07T05:28:49;45.63;;;27.47;;
12900;SDS011;6518;50.930;5.344;2023-04-07T05:31:16;43.83;;;27.47;;
12900;SDS011;6518;50.930;5.344;2023-04-07T05:33:43;43.10;;;27.83;;
12900;SDS011;6518;50.930;5.344;2023-04-07T05:36:09;46.47;;;26.63;;
12900;SDS011;6518;50.930;5.344;2023-04-07T05:38:36;47.97;;;27.43;;
12900;SDS011;6518;50.930;5.344;2023-04-07T05:41:03;44.60;;;27.77;;
12900;SDS011;6518;50.930;5.344;2023-04-07T05:43:30;48.73;;;28.30;;
12900;SDS011;6518;50.930;5.344;2023-04-07T05:45:58;49.10;;;28.50;;
12900;SDS011;6518;50.930;5.344;2023-04-07T05:48:25;45.57;;;28.67;;
12900;SDS011;6518;50.930;5.344;2023-04-07T05:50:52;43.10;;;27.17;;
12900;SDS011;6518;50.930;5.344;2023-04-07T05:53:18;47.07;;;27.83;;
12900;SDS011;6518;50.930;5.344;2023-04-07T05:55:45;45.30;;;26.87;;
12900;SDS011;6518;50.930;5.344;2023-04-07T05:58:12;39.57;;;23.23;;
12900;SDS011;6518;50.930;5.344;2023-04-07T06:00:39;39.63;;;25.70;;
12900;SDS011;6518;50.930;5.344;2023-04-07T06:03:07;43.13;;;24.57;;
12900;SDS011;6518;50.930;5.344;2023-04-07T06:05:34;34.90;;;19.00;;
12900;SDS011;6518;50.930;5.344;2023-04-07T06:08:01;31.03;;;19.17;;
12900;SDS011;6518;50.930;5.344;2023-04-07T06:10:28;30.03;;;18.90;;
12900;SDS011;6518;50.930;5.344;2023-04-07T06:12:55;31.33;;;19.27;;
12900;SDS011;6518;50.930;5.344;2023-04-07T06:15:22;30.17;;;19.70;;
12900;SDS011;6518;50.930;5.344;2023-04-07T06:17:49;30.50;;;17.83;;
12900;SDS011;6518;50.930;5.344;2023-04-07T06:20:17;33.53;;;18.90;;
12900;SDS011;6518;50.930;5.344;2023-04-07T06:22:45;33.80;;;18.57;;
12900;SDS011;6518;50.930;5.344;2023-04-07T06:25:12;32.63;;;19.50;;
12900;SDS011;6518;50.930;5.344;2023-04-07T06:27:39;31.33;;;20.33;;
12900;SDS011;6518;50.930;5.344;2023-04-07T06:30:06;37.00;;;22.00;;
12900;SDS011;6518;50.930;5.344;2023-04-07T06:32:34;40.80;;;21.57;;
12900;SDS011;6518;50.930;5.344;2023-04-07T06:35:01;38.07;;;21.10;;
12900;SDS011;6518;50.930;5.344;2023-04-07T06:37:29;35.93;;;20.60;;
12900;SDS011;6518;50.930;5.344;2023-04-07T06:39:56;35.40;;;20.93;;
12900;SDS011;6518;50.930;5.344;2023-04-07T06:42:22;32.67;;;20.43;;
12900;SDS011;6518;50.930;5.344;2023-04-07T06:44:49;34.93;;;19.33;;
12900;SDS011;6518;50.930;5.344;2023-04-07T06:47:16;40.23;;;20.13;;
12900;SDS011;6518;50.930;5.344;2023-04-07T06:49:43;38.63;;;20.53;;
12900;SDS011;6518;50.930;5.344;2023-04-07T06:52:10;36.30;;;19.60;;
12900;SDS011;6518;50.930;5.344;2023-04-07T06:54:38;34.27;;;20.03;;
12900;SDS011;6518;50.930;5.344;2023-04-07T06:57:05;36.40;;;20.53;;
12900;SDS011;6518;50.930;5.344;2023-04-07T06:59:36;35.93;;;21.13;;
12900;SDS011;6518;50.930;5.344;2023-04-07T07:02:02;38.07;;;20.37;;
12900;SDS011;6518;50.930;5.344;2023-04-07T07:04:31;35.63;;;19.57;;
12900;SDS011;6518;50.930;5.344;2023-04-07T07:06:58;37.23;;;19.77;;
12900;SDS011;6518;50.930;5.344;2023-04-07T07:09:25;38.60;;;20.30;;
12900;SDS011;6518;50.930;5.344;2023-04-07T07:11:53;38.23;;;19.63;;
12900;SDS011;6518;50.930;5.344;2023-04-07T07:14:21;37.23;;;18.97;;
12900;SDS011;6518;50.930;5.344;2023-04-07T07:16:48;39.87;;;19.30;;
12900;SDS011;6518;50.930;5.344;2023-04-07T07:19:15;35.07;;;18.73;;
12900;SDS011;6518;50.930;5.344;2023-04-07T07:21:41;35.37;;;18.00;;
12900;SDS011;6518;50.930;5.344;2023-04-07T07:24:08;37.60;;;20.00;;
12900;SDS011;6518;50.930;5.344;2023-04-07T07:26:35;36.47;;;21.07;;
12900;SDS011;6518;50.930;5.344;2023-04-07T07:29:03;37.70;;;21.23;;
12900;SDS011;6518;50.930;5.344;2023-04-07T07:31:30;38.30;;;20.50;;
12900;SDS011;6518;50.930;5.344;2023-04-07T07:33:57;36.27;;;20.97;;
12900;SDS011;6518;50.930;5.344;2023-04-07T07:36:24;34.57;;;20.20;;
12900;SDS011;6518;50.930;5.344;2023-04-07T07:38:51;37.37;;;21.77;;
12900;SDS011;6518;50.930;5.344;2023-04-07T07:41:18;37.53;;;20.00;;
12900;SDS011;6518;50.930;5.344;2023-04-07T07:43:45;36.33;;;21.73;;
12900;SDS011;6518;50.930;5.344;2023-04-07T07:46:13;31.20;;;19.27;;
12900;SDS011;6518;50.930;5.344;2023-04-07T07:48:40;29.33;;;18.10;;
12900;SDS011;6518;50.930;5.344;2023-04-07T07:51:07;26.10;;;18.20;;
12900;SDS011;6518;50.930;5.344;2023-04-07T07:53:33;27.80;;;18.77;;
12900;SDS011;6518;50.930;5.344;2023-04-07T07:56:00;27.23;;;18.10;;
12900;SDS011;6518;50.930;5.344;2023-04-07T07:58:27;29.87;;;18.10;;
12900;SDS011;6518;50.930;5.344;2023-04-07T08:00:54;28.77;;;19.33;;
12900;SDS011;6518;50.930;5.344;2023-04-07T08:03:22;27.87;;;18.87;;
12900;SDS011;6518;50.930;5.344;2023-04-07T08:05:48;27.47;;;16.70;;
12900;SDS011;6518;50.930;5.344;2023-04-07T08:08:15;25.57;;;17.53;;
12900;SDS011;6518;50.930;5.344;2023-04-07T08:10:42;28.30;;;19.73;;
12900;SDS011;6518;50.930;5.344;2023-04-07T08:13:09;25.43;;;17.97;;
12900;SDS011;6518;50.930;5.344;2023-04-07T08:15:36;26.93;;;16.97;;
12900;SDS011;6518;50.930;5.344;2023-04-07T08:18:02;21.77;;;16.57;;
12900;SDS011;6518;50.930;5.344;2023-04-07T08:20:32;26.10;;;16.97;;
12900;SDS011;6518;50.930;5.344;2023-04-07T08:22:59;20.23;;;15.90;;
12900;SDS011;6518;50.930;5.344;2023-04-07T08:25:27;24.07;;;16.07;;
12900;SDS011;6518;50.930;5.344;2023-04-07T08:27:54;19.53;;;14.87;;
12900;SDS011;6518;50.930;5.344;2023-04-07T08:30:21;18.73;;;14.30;;
12900;SDS011;6518;50.930;5.344;2023-04-07T08:32:48;20.43;;;14.53;;
12900;SDS011;6518;50.930;5.344;2023-04-07T08:35:20;22.40;;;15.87;;
12900;SDS011;6518;50.930;5.344;2023-04-07T08:37:49;23.23;;;17.23;;
12900;SDS011;6518;50.930;5.344;2023-04-07T08:40:16;25.07;;;17.10;;
12900;SDS011;6518;50.930;5.344;2023-04-07T08:42:44;23.40;;;16.93;;
12900;SDS011;6518;50.930;5.344;2023-04-07T08:45:15;23.50;;;16.93;;
12900;SDS011;6518;50.930;5.344;2023-04-07T08:47:42;20.27;;;15.97;;
12900;SDS011;6518;50.930;5.344;2023-04-07T08:50:11;20.53;;;15.60;;
12900;SDS011;6518;50.930;5.344;2023-04-07T08:52:40;20.63;;;14.53;;
12900;SDS011;6518;50.930;5.344;2023-04-07T08:55:12;19.57;;;13.23;;
12900;SDS011;6518;50.930;5.344;2023-04-07T08:57:38;18.53;;;14.37;;
12900;SDS011;6518;50.930;5.344;2023-04-07T09:00:07;20.33;;;14.83;;
12900;SDS011;6518;50.930;5.344;2023-04-07T09:02:36;16.33;;;11.90;;
12900;SDS011;6518;50.930;5.344;2023-04-07T09:05:05;13.87;;;11.70;;
12900;SDS011;6518;50.930;5.344;2023-04-07T09:07:33;20.43;;;13.90;;
12900;SDS011;6518;50.930;5.344;2023-04-07T09:10:00;13.90;;;12.40;;
12900;SDS011;6518;50.930;5.344;2023-04-07T09:12:29;16.53;;;12.83;;
12900;SDS011;6518;50.930;5.344;2023-04-07T09:14:56;19.20;;;13.33;;
12900;SDS011;6518;50.930;5.344;2023-04-07T09:17:23;15.07;;;12.60;;
12900;SDS011;6518;50.930;5.344;2023-04-07T09:19:51;16.83;;;12.77;;
12900;SDS011;6518;50.930;5.344;2023-04-07T09:22:32;18.90;;;12.73;;
12900;SDS011;6518;50.930;5.344;2023-04-07T09:25:08;16.53;;;11.23;;
12900;SDS011;6518;50.930;5.344;2023-04-07T09:27:40;13.63;;;11.30;;
12900;SDS011;6518;50.930;5.344;2023-04-07T09:30:18;13.50;;;10.77;;
12900;SDS011;6518;50.930;5.344;2023-04-07T09:32:46;14.07;;;8.90;;
12900;SDS011;6518;50.930;5.344;2023-04-07T09:35:12;11.47;;;8.77;;
12900;SDS011;6518;50.930;5.344;2023-04-07T09:37:39;14.60;;;10.33;;
12900;SDS011;6518;50.930;5.344;2023-04-07T09:40:07;13.03;;;9.47;;
12900;SDS011;6518;50.930;5.344;2023-04-07T09:42:34;12.57;;;9.17;;
12900;SDS011;6518;50.930;5.344;2023-04-07T09:45:12;13.87;;;9.03;;
12900;SDS011;6518;50.930;5.344;2023-04-07T09:47:49;14.20;;;8.63;;
12900;SDS011;6518;50.930;5.344;2023-04-07T09:50:19;10.17;;;7.87;;
12900;SDS011;6518;50.930;5.344;2023-04-07T09:52:57;11.33;;;9.87;;
12900;SDS011;6518;50.930;5.344;2023-04-07T09:55:25;12.03;;;8.87;;
12900;SDS011;6518;50.930;5.344;2023-04-07T09:57:55;14.07;;;10.07;;
12900;SDS011;6518;50.930;5.344;2023-04-07T10:00:23;12.80;;;9.20;;
12900;SDS011;6518;50.930;5.344;2023-04-07T10:02:51;13.03;;;9.03;;
12900;SDS011;6518;50.930;5.344;2023-04-07T10:05:18;10.23;;;8.93;;
12900;SDS011;6518;50.930;5.344;2023-04-07T10:07:46;11.70;;;8.87;;
12900;SDS011;6518;50.930;5.344;2023-04-07T10:10:13;12.90;;;8.40;;
12900;SDS011;6518;50.930;5.344;2023-04-07T10:12:40;12.07;;;7.47;;
12900;SDS011;6518;50.930;5.344;2023-04-07T10:15:09;9.63;;;6.70;;
12900;SDS011;6518;50.930;5.344;2023-04-07T10:17:39;8.40;;;5.67;;
12900;SDS011;6518;50.930;5.344;2023-04-07T10:20:11;8.20;;;6.03;;
12900;SDS011;6518;50.930;5.344;2023-04-07T10:22:39;9.20;;;6.23;;
12900;SDS011;6518;50.930;5.344;2023-04-07T10:25:07;8.77;;;5.60;;
12900;SDS011;6518;50.930;5.344;2023-04-07T10:27:37;6.97;;;5.80;;
12900;SDS011;6518;50.930;5.344;2023-04-07T10:30:16;9.43;;;6.37;;
12900;SDS011;6518;50.930;5.344;2023-04-07T10:32:47;8.73;;;6.73;;
12900;SDS011;6518;50.930;5.344;2023-04-07T10:35:15;7.27;;;6.07;;
12900;SDS011;6518;50.930;5.344;2023-04-07T10:37:51;10.93;;;6.97;;
12900;SDS011;6518;50.930;5.344;2023-04-07T10:40:37;9.43;;;6.73;;
12900;SDS011;6518;50.930;5.344;2023-04-07T10:43:05;8.40;;;6.73;;
12900;SDS011;6518;50.930;5.344;2023-04-07T10:45:51;9.47;;;6.33;;
12900;SDS011;6518;50.930;5.344;2023-04-07T10:48:21;8.87;;;6.40;;
12900;SDS011;6518;50.930;5.344;2023-04-07T10:57:03;9.80;;;7.27;;
12900;SDS011;6518;50.930;5.344;2023-04-07T10:59:36;9.43;;;6.60;;
12900;SDS011;6518;50.930;5.344;2023-04-07T11:05:00;12.43;;;7.17;;
12900;SDS011;6518;50.930;5.344;2023-04-07T11:10:23;7.20;;;6.33;;
12900;SDS011;6518;50.930;5.344;2023-04-07T11:13:00;10.53;;;6.90;;
12900;SDS011;6518;50.930;5.344;2023-04-07T11:15:31;9.10;;;6.33;;
12900;SDS011;6518;50.930;5.344;2023-04-07T11:18:06;8.97;;;6.23;;
12900;SDS011;6518;50.930;5.344;2023-04-07T11:20:43;7.23;;;5.50;;
12900;SDS011;6518;50.930;5.344;2023-04-07T11:23:12;10.30;;;5.67;;
12900;SDS011;6518;50.930;5.344;2023-04-07T11:25:40;9.60;;;5.70;;
12900;SDS011;6518;50.930;5.344;2023-04-07T11:28:08;8.03;;;5.73;;
12900;SDS011;6518;50.930;5.344;2023-04-07T11:30:36;7.53;;;5.70;;
12900;SDS011;6518;50.930;5.344;2023-04-07T11:33:03;13.67;;;5.77;;
12900;SDS011;6518;50.930;5.344;2023-04-07T11:35:31;8.00;;;5.83;;
12900;SDS011;6518;50.930;5.344;2023-04-07T11:37:59;7.80;;;5.67;;
12900;SDS011;6518;50.930;5.344;2023-04-07T11:40:30;7.93;;;5.63;;
12900;SDS011;6518;50.930;5.344;2023-04-07T11:42:59;9.40;;;5.70;;
12900;SDS011;6518;50.930;5.344;2023-04-07T11:45:27;10.90;;;6.47;;
12900;SDS011;6518;50.930;5.344;2023-04-07T11:47:54;7.27;;;5.43;;
12900;SDS011;6518;50.930;5.344;2023-04-07T11:53:07;8.80;;;5.30;;
12900;SDS011;6518;50.930;5.344;2023-04-07T11:55:35;6.17;;;5.47;;
12900;SDS011;6518;50.930;5.344;2023-04-07T11:58:06;8.20;;;6.10;;
12900;SDS011;6518;50.930;5.344;2023-04-07T12:00:34;7.70;;;5.57;;
12900;SDS011;6518;50.930;5.344;2023-04-07T12:03:09;8.43;;;5.00;;
12900;SDS011;6518;50.930;5.344;2023-04-07T12:05:43;7.17;;;4.90;;
12900;SDS011;6518;50.930;5.344;2023-04-07T12:14:29;7.47;;;4.30;;
12900;SDS011;6518;50.930;5.344;2023-04-07T12:16:56;8.43;;;4.27;;
12900;SDS011;6518;50.930;5.344;2023-04-07T12:19:26;9.83;;;4.60;;
12900;SDS011;6518;50.930;5.344;2023-04-07T12:21:56;9.30;;;4.83;;
12900;SDS011;6518;50.930;5.344;2023-04-07T12:24:23;7.90;;;5.03;;
12900;SDS011;6518;50.930;5.344;2023-04-07T12:26:51;7.27;;;5.70;;
12900;SDS011;6518;50.930;5.344;2023-04-07T12:29:19;8.97;;;6.43;;
12900;SDS011;6518;50.930;5.344;2023-04-07T12:31:45;11.57;;;6.53;;
12900;SDS011;6518;50.930;5.344;2023-04-07T12:34:12;10.70;;;6.50;;
12900;SDS011;6518;50.930;5.344;2023-04-07T12:36:39;12.47;;;7.00;;
12900;SDS011;6518;50.930;5.344;2023-04-07T12:39:07;7.77;;;5.90;;
12900;SDS011;6518;50.930;5.344;2023-04-07T12:41:34;14.53;;;7.63;;
12900;SDS011;6518;50.930;5.344;2023-04-07T12:44:02;11.53;;;6.87;;
12900;SDS011;6518;50.930;5.344;2023-04-07T12:46:29;12.90;;;7.77;;
12900;SDS011;6518;50.930;5.344;2023-04-07T12:48:56;11.87;;;7.53;;
12900;SDS011;6518;50.930;5.344;2023-04-07T12:51:23;12.93;;;7.47;;
12900;SDS011;6518;50.930;5.344;2023-04-07T12:53:51;7.80;;;6.33;;
12900;SDS011;6518;50.930;5.344;2023-04-07T12:56:20;9.07;;;6.87;;
12900;SDS011;6518;50.930;5.344;2023-04-07T12:58:46;9.53;;;7.50;;
12900;SDS011;6518;50.930;5.344;2023-04-07T13:01:13;11.47;;;7.47;;
12900;SDS011;6518;50.930;5.344;2023-04-07T13:03:40;11.63;;;8.43;;
12900;SDS011;6518;50.930;5.344;2023-04-07T13:06:07;13.27;;;7.70;;
12900;SDS011;6518;50.930;5.344;2023-04-07T13:08:35;17.17;;;8.47;;
12900;SDS011;6518;50.930;5.344;2023-04-07T13:11:01;9.33;;;7.57;;
12900;SDS011;6518;50.930;5.344;2023-04-07T13:13:30;10.30;;;6.10;;
12900;SDS011;6518;50.930;5.344;2023-04-07T13:15:57;9.40;;;5.80;;
12900;SDS011;6518;50.930;5.344;2023-04-07T13:18:24;7.37;;;4.10;;
12900;SDS011;6518;50.930;5.344;2023-04-07T13:20:51;6.87;;;3.90;;
12900;SDS011;6518;50.930;5.344;2023-04-07T13:23:17;5.73;;;3.83;;
12900;SDS011;6518;50.930;5.344;2023-04-07T13:25:45;7.60;;;3.73;;
12900;SDS011;6518;50.930;5.344;2023-04-07T13:28:11;16.93;;;4.53;;
12900;SDS011;6518;50.930;5.344;2023-04-07T13:30:41;6.37;;;3.60;;
12900;SDS011;6518;50.930;5.344;2023-04-07T13:33:08;9.63;;;4.40;;
12900;SDS011;6518;50.930;5.344;2023-04-07T13:35:35;6.93;;;3.60;;
12900;SDS011;6518;50.930;5.344;2023-04-07T13:38:02;5.80;;;3.30;;
12900;SDS011;6518;50.930;5.344;2023-04-07T13:40:29;7.60;;;3.63;;
12900;SDS011;6518;50.930;5.344;2023-04-07T13:42:56;7.43;;;3.70;;
12900;SDS011;6518;50.930;5.344;2023-04-07T13:45:24;6.47;;;3.27;;
12900;SDS011;6518;50.930;5.344;2023-04-07T13:47:52;11.20;;;3.63;;
12900;SDS011;6518;50.930;5.344;2023-04-07T13:50:20;8.63;;;3.73;;
12900;SDS011;6518;50.930;5.344;2023-04-07T13:52:46;10.07;;;3.70;;
12900;SDS011;6518;50.930;5.344;2023-04-07T13:55:13;8.27;;;3.73;;
12900;SDS011;6518;50.930;5.344;2023-04-07T13:57:41;9.73;;;3.43;;
12900;SDS011;6518;50.930;5.344;2023-04-07T14:00:08;6.90;;;3.03;;
12900;SDS011;6518;50.930;5.344;2023-04-07T14:02:35;8.10;;;3.17;;
12900;SDS011;6518;50.930;5.344;2023-04-07T14:05:04;6.03;;;2.57;;
12900;SDS011;6518;50.930;5.344;2023-04-07T14:07:31;4.47;;;2.43;;
12900;SDS011;6518;50.930;5.344;2023-04-07T14:09:58;5.30;;;2.17;;
12900;SDS011;6518;50.930;5.344;2023-04-07T14:12:25;6.53;;;2.40;;
12900;SDS011;6518;50.930;5.344;2023-04-07T14:14:52;6.70;;;2.47;;
12900;SDS011;6518;50.930;5.344;2023-04-07T14:17:18;7.73;;;2.40;;
12900;SDS011;6518;50.930;5.344;2023-04-07T14:19:46;6.73;;;2.43;;
12900;SDS011;6518;50.930;5.344;2023-04-07T14:22:14;3.93;;;2.33;;
12900;SDS011;6518;50.930;5.344;2023-04-07T14:24:41;4.63;;;2.43;;
12900;SDS011;6518;50.930;5.344;2023-04-07T14:27:07;5.47;;;2.90;;
12900;SDS011;6518;50.930;5.344;2023-04-07T14:29:34;7.00;;;3.57;;
12900;SDS011;6518;50.930;5.344;2023-04-07T14:32:01;5.77;;;2.77;;
12900;SDS011;6518;50.930;5.344;2023-04-07T14:34:28;5.07;;;2.80;;
12900;SDS011;6518;50.930;5.344;2023-04-07T14:36:56;7.40;;;3.00;;
12900;SDS011;6518;50.930;5.344;2023-04-07T14:39:25;9.60;;;3.37;;
12900;SDS011;6518;50.930;5.344;2023-04-07T14:41:51;8.27;;;3.43;;
12900;SDS011;6518;50.930;5.344;2023-04-07T14:44:18;9.50;;;3.97;;
12900;SDS011;6518;50.930;5.344;2023-04-07T14:46:46;6.47;;;3.40;;
12900;SDS011;6518;50.930;5.344;2023-04-07T14:49:13;8.73;;;3.63;;
12900;SDS011;6518;50.930;5.344;2023-04-07T14:51:40;7.57;;;3.57;;
12900;SDS011;6518;50.930;5.344;2023-04-07T14:54:07;6.87;;;3.10;;
12900;SDS011;6518;50.930;5.344;2023-04-07T14:56:35;6.37;;;3.40;;
12900;SDS011;6518;50.930;5.344;2023-04-07T14:59:02;4.90;;;3.03;;
12900;SDS011;6518;50.930;5.344;2023-04-07T15:01:28;5.30;;;2.60;;
12900;SDS011;6518;50.930;5.344;2023-04-07T15:03:56;5.37;;;3.20;;
12900;SDS011;6518;50.930;5.344;2023-04-07T15:06:24;5.20;;;2.67;;
12900;SDS011;6518;50.930;5.344;2023-04-07T15:08:51;7.03;;;2.70;;